createdAt,value
2023-05-18T00:01:19.777Z,3.30
2023-05-18T00:03:48.453Z,3.10
2023-05-18T00:06:17.712Z,3.40
2023-05-18T00:08:46.585Z,3.47
2023-05-18T00:11:15.144Z,3.00
2023-05-18T00:13:44.139Z,3.20
2023-05-18T00:16:16.284Z,3.47
2023-05-18T00:18:46.907Z,3.30
2023-05-18T00:21:16.355Z,3.33
2023-05-18T00:23:49.714Z,3.20
2023-05-18T00:26:21.909Z,3.30
2023-05-18T00:28:50.491Z,3.03
2023-05-18T00:31:19.349Z,3.00
2023-05-18T00:33:49.268Z,3.10
2023-05-18T00:36:18.316Z,3.83
2023-05-18T00:38:47.278Z,3.53
2023-05-18T00:41:16.094Z,3.33
2023-05-18T00:43:44.663Z,3.33
2023-05-18T00:46:13.347Z,2.87
2023-05-18T00:48:42.761Z,3.63
2023-05-18T00:51:13.751Z,3.73
2023-05-18T00:53:44.207Z,3.40
2023-05-18T00:56:13.610Z,3.20
2023-05-18T00:58:42.934Z,3.60
2023-05-18T01:01:11.776Z,3.40
2023-05-18T01:03:43.271Z,3.60
2023-05-18T01:06:15.184Z,3.80
2023-05-18T01:08:44.435Z,3.87
2023-05-18T01:11:20.791Z,3.40
2023-05-18T01:13:57.540Z,3.47
2023-05-18T01:16:34.341Z,3.80
2023-05-18T01:19:08.117Z,3.80
2023-05-18T01:21:53.735Z,3.40
2023-05-18T01:24:33.751Z,3.73
2023-05-18T01:27:06.983Z,4.30
2023-05-18T01:29:36.566Z,4.00
2023-05-18T01:32:09.436Z,3.40
2023-05-18T01:34:38.083Z,3.53
2023-05-18T01:37:06.887Z,3.20
2023-05-18T01:39:35.860Z,4.17
2023-05-18T01:42:10.797Z,3.97
2023-05-18T01:44:43.202Z,3.67
2023-05-18T01:47:15.748Z,3.50
2023-05-18T01:49:49.861Z,3.80
2023-05-18T01:52:22.108Z,3.57
2023-05-18T01:54:55.571Z,3.60
2023-05-18T01:57:28.715Z,4.17
2023-05-18T02:00:00.443Z,3.70
2023-05-18T02:02:30.036Z,3.70
2023-05-18T02:04:58.718Z,3.83
2023-05-18T02:07:27.226Z,3.97
2023-05-18T02:09:56.153Z,4.00
2023-05-18T02:12:26.577Z,3.60
2023-05-18T02:14:55.751Z,3.77
2023-05-18T02:17:26.400Z,4.00
2023-05-18T02:19:56.721Z,3.80
2023-05-18T02:22:25.519Z,4.03
2023-05-18T02:24:54.122Z,3.83
2023-05-18T02:27:22.797Z,3.50
2023-05-18T02:29:53.756Z,3.50
2023-05-18T02:32:23.374Z,3.83
2023-05-18T02:34:54.595Z,3.70
2023-05-18T02:37:23.810Z,3.57
2023-05-18T02:39:52.743Z,3.70
2023-05-18T02:42:21.504Z,3.90
2023-05-18T02:44:51.500Z,3.90
2023-05-18T02:47:19.998Z,3.80
2023-05-18T02:49:48.377Z,3.40
2023-05-18T02:52:17.159Z,3.90
2023-05-18T02:54:45.938Z,3.73
2023-05-18T02:57:15.092Z,3.63
2023-05-18T02:59:43.820Z,3.57
2023-05-18T03:02:14.790Z,3.60
2023-05-18T03:04:43.503Z,3.90
2023-05-18T03:07:12.166Z,3.10
2023-05-18T03:09:40.774Z,3.30
2023-05-18T03:12:10.221Z,3.63
2023-05-18T03:14:38.707Z,3.67
2023-05-18T03:17:09.697Z,3.80
2023-05-18T03:19:39.901Z,4.00
2023-05-18T03:22:09.389Z,3.60
2023-05-18T03:24:40.574Z,3.43
2023-05-18T03:27:09.331Z,3.60
2023-05-18T03:29:38.278Z,3.90
2023-05-18T03:32:08.452Z,3.83
2023-05-18T03:34:39.330Z,3.53
2023-05-18T03:37:07.842Z,4.00
2023-05-18T03:39:36.489Z,3.93
2023-05-18T03:42:05.576Z,3.90
2023-05-18T03:44:34.304Z,4.00
2023-05-18T03:47:03.016Z,4.07
2023-05-18T03:49:31.766Z,4.00
2023-05-18T03:52:02.227Z,3.73
2023-05-18T03:54:30.728Z,3.77
2023-05-18T03:56:59.591Z,4.20
2023-05-18T03:59:28.228Z,4.50
2023-05-18T04:01:57.113Z,4.67
2023-05-18T04:04:27.831Z,3.70
2023-05-18T04:06:56.711Z,3.87
2023-05-18T04:09:28.482Z,4.13
2023-05-18T04:11:57.110Z,4.33
2023-05-18T04:14:28.550Z,4.47
2023-05-18T04:16:58.474Z,4.33
2023-05-18T04:19:27.301Z,4.07
2023-05-18T04:21:56.335Z,4.50
2023-05-18T04:24:27.278Z,4.47
2023-05-18T04:26:56.296Z,4.13
2023-05-18T04:29:25.083Z,4.00
2023-05-18T04:31:54.111Z,4.37
2023-05-18T04:34:24.758Z,4.70
2023-05-18T04:36:54.778Z,4.40
2023-05-18T04:39:24.282Z,4.33
2023-05-18T04:41:58.338Z,4.30
2023-05-18T04:44:27.566Z,4.00
2023-05-18T04:46:57.345Z,3.97
2023-05-18T04:49:26.589Z,4.77
2023-05-18T04:51:57.551Z,4.30
2023-05-18T04:54:28.585Z,4.37
2023-05-18T04:56:59.283Z,5.17
2023-05-18T04:59:29.388Z,4.50
2023-05-18T05:01:58.150Z,4.13
2023-05-18T05:04:26.680Z,4.40
2023-05-18T05:06:55.507Z,4.23
2023-05-18T05:09:24.173Z,4.30
2023-05-18T05:11:53.068Z,4.10
2023-05-18T05:14:23.533Z,5.03
2023-05-18T05:16:52.129Z,4.23
2023-05-18T05:19:20.940Z,4.10
2023-05-18T05:21:50.106Z,3.70
2023-05-18T05:24:18.987Z,4.30
2023-05-18T05:26:47.409Z,4.07
2023-05-18T05:29:15.841Z,4.53
2023-05-18T05:31:45.998Z,4.90
2023-05-18T05:34:15.086Z,4.60
2023-05-18T05:36:43.977Z,5.07
2023-05-18T05:39:13.367Z,4.80
2023-05-18T05:41:42.094Z,5.00
2023-05-18T05:44:11.835Z,4.50
2023-05-18T05:46:40.633Z,4.53
2023-05-18T05:49:10.547Z,4.50
2023-05-18T05:51:39.457Z,4.27
2023-05-18T05:54:10.060Z,4.30
2023-05-18T05:56:39.572Z,4.63
2023-05-18T05:59:11.721Z,4.30
2023-05-18T06:01:40.387Z,4.60
2023-05-18T06:04:12.960Z,4.17
2023-05-18T06:06:42.057Z,4.47
2023-05-18T06:09:10.831Z,4.30
2023-05-18T06:11:39.917Z,4.20
2023-05-18T06:14:08.584Z,4.50
2023-05-18T06:16:37.105Z,5.10
2023-05-18T06:19:05.759Z,4.20
2023-05-18T06:21:36.200Z,4.50
2023-05-18T06:24:06.023Z,4.03
2023-05-18T06:26:34.779Z,4.63
2023-05-18T06:29:06.252Z,4.50
2023-05-18T06:31:35.283Z,4.10
2023-05-18T06:34:04.081Z,4.27
2023-05-18T06:36:33.724Z,4.30
2023-05-18T06:39:05.131Z,4.17
2023-05-18T06:41:34.700Z,4.60
2023-05-18T06:44:03.543Z,4.20
2023-05-18T06:46:32.397Z,4.17
2023-05-18T06:49:01.726Z,4.40
2023-05-18T06:51:30.689Z,4.23
2023-05-18T06:53:59.521Z,4.17
2023-05-18T06:56:29.789Z,3.93
2023-05-18T06:59:00.256Z,4.33
2023-05-18T07:01:29.373Z,4.30
2023-05-18T07:03:58.110Z,3.90
2023-05-18T07:06:26.823Z,4.23
2023-05-18T07:08:56.383Z,4.03
2023-05-18T07:11:25.574Z,3.93
2023-05-18T07:13:57.005Z,4.00
2023-05-18T07:16:27.870Z,4.37
2023-05-18T07:18:59.119Z,4.40
2023-05-18T07:21:28.205Z,4.23
2023-05-18T07:23:56.774Z,4.17
2023-05-18T07:26:26.284Z,4.10
2023-05-18T07:28:56.184Z,4.20
2023-05-18T07:31:25.155Z,3.80
2023-05-18T07:33:54.561Z,3.50
2023-05-18T07:36:24.153Z,4.60
2023-05-18T07:38:55.204Z,3.97
2023-05-18T07:41:24.502Z,4.20
2023-05-18T07:43:54.009Z,3.80
2023-05-18T07:46:24.457Z,4.40
2023-05-18T07:48:53.355Z,3.90
2023-05-18T07:51:22.308Z,4.23
2023-05-18T07:53:50.908Z,3.73
2023-05-18T07:56:19.804Z,3.80
2023-05-18T07:58:48.285Z,3.80
2023-05-18T08:01:17.247Z,3.77
2023-05-18T08:03:47.282Z,3.97
2023-05-18T08:06:16.163Z,3.47
2023-05-18T08:08:44.861Z,3.30
2023-05-18T08:11:13.456Z,3.87
2023-05-18T08:13:42.387Z,4.07
2023-05-18T08:16:12.466Z,4.20
2023-05-18T08:18:42.193Z,4.27
2023-05-18T08:21:13.039Z,3.83
2023-05-18T08:23:41.835Z,4.00
2023-05-18T08:26:14.152Z,4.37
2023-05-18T08:28:43.111Z,3.80
2023-05-18T08:31:12.482Z,4.30
2023-05-18T08:33:42.153Z,4.53
2023-05-18T08:36:12.948Z,4.47
2023-05-18T08:38:43.008Z,4.40
2023-05-18T08:41:20.098Z,4.07
2023-05-18T08:43:55.581Z,4.07
2023-05-18T08:46:32.135Z,3.80
2023-05-18T08:49:02.604Z,3.90
2023-05-18T08:51:37.142Z,4.00
2023-05-18T08:54:08.279Z,3.53
2023-05-18T08:56:37.830Z,2.83
2023-05-18T08:59:08.291Z,2.90
2023-05-18T09:01:38.985Z,2.97
2023-05-18T09:04:08.685Z,2.93
2023-05-18T09:06:39.123Z,3.37
2023-05-18T09:09:08.209Z,3.10
2023-05-18T09:11:36.961Z,3.03
2023-05-18T09:14:05.705Z,3.00
2023-05-18T09:16:35.143Z,3.00
2023-05-18T09:19:04.170Z,3.10
2023-05-18T09:21:33.809Z,3.07
2023-05-18T09:24:04.262Z,2.80
2023-05-18T09:26:32.816Z,3.50
2023-05-18T09:29:01.678Z,3.63
2023-05-18T09:31:33.235Z,3.50
2023-05-18T09:34:03.822Z,3.50
2023-05-18T09:36:34.903Z,3.33
2023-05-18T09:39:10.063Z,3.10
2023-05-18T09:41:41.282Z,3.27
2023-05-18T09:44:10.968Z,3.40
2023-05-18T09:46:40.144Z,3.57
2023-05-18T09:49:10.157Z,3.60
2023-05-18T09:51:39.704Z,3.27
2023-05-18T09:54:11.062Z,3.57
2023-05-18T09:56:40.097Z,3.20
2023-05-18T09:59:13.564Z,3.00
2023-05-18T10:01:58.034Z,3.30
2023-05-18T10:04:37.309Z,2.70
2023-05-18T10:07:11.833Z,3.00
2023-05-18T10:09:43.810Z,3.33
2023-05-18T10:12:14.776Z,2.80
2023-05-18T10:14:44.494Z,3.13
2023-05-18T10:17:16.382Z,3.10
2023-05-18T10:19:46.666Z,2.90
2023-05-18T10:22:20.024Z,2.87
2023-05-18T10:24:53.417Z,3.07
2023-05-18T10:27:28.762Z,3.00
2023-05-18T10:30:06.982Z,2.80
2023-05-18T10:33:24.749Z,2.80
2023-05-18T10:35:50.184Z,2.90
2023-05-18T10:38:22.440Z,2.70
2023-05-18T10:40:55.102Z,3.17
2023-05-18T10:43:27.611Z,3.00
2023-05-18T10:45:58.591Z,3.00
2023-05-18T10:48:28.323Z,3.13
2023-05-18T10:50:59.525Z,3.10
2023-05-18T10:53:29.478Z,3.13
2023-05-18T10:56:02.808Z,3.17
2023-05-18T10:58:33.191Z,3.07
2023-05-18T11:01:06.703Z,3.17
2023-05-18T11:03:35.653Z,2.83
2023-05-18T11:06:10.286Z,3.20
2023-05-18T11:08:45.658Z,3.70
2023-05-18T11:11:18.683Z,3.47
2023-05-18T11:13:51.836Z,3.33
2023-05-18T11:16:21.518Z,3.53
2023-05-18T11:18:52.043Z,3.33
2023-05-18T11:21:33.312Z,3.20
2023-05-18T11:24:20.584Z,3.30
2023-05-18T11:26:52.295Z,2.70
2023-05-18T11:29:23.794Z,3.20
2023-05-18T11:31:54.886Z,3.07
2023-05-18T11:34:47.975Z,3.20
2023-05-18T11:37:17.362Z,3.40
2023-05-18T11:39:59.666Z,3.40
2023-05-18T11:42:36.123Z,3.40
2023-05-18T11:45:08.918Z,3.23
2023-05-18T11:47:38.205Z,3.47
2023-05-18T11:50:09.964Z,3.87
2023-05-18T11:52:48.568Z,3.50
2023-05-18T11:55:19.786Z,3.20
2023-05-18T11:57:54.341Z,3.67
2023-05-18T12:00:26.190Z,3.47
2023-05-18T12:02:58.917Z,3.20
2023-05-18T12:05:32.397Z,3.47
2023-05-18T12:08:01.857Z,3.60
2023-05-18T12:10:31.263Z,3.60
2023-05-18T12:13:03.172Z,3.47
2023-05-18T12:15:32.828Z,3.60
2023-05-18T12:18:01.495Z,3.53
2023-05-18T12:20:31.200Z,3.60
2023-05-18T12:23:15.162Z,3.33
2023-05-18T12:25:44.516Z,3.53
2023-05-18T12:28:17.612Z,3.23
2023-05-18T12:30:46.923Z,3.33
2023-05-18T12:33:15.904Z,3.27
2023-05-18T12:35:44.585Z,3.50
2023-05-18T12:38:13.662Z,4.13
2023-05-18T12:40:48.852Z,3.30
2023-05-18T12:43:19.136Z,3.77
2023-05-18T12:45:49.097Z,3.47
2023-05-18T12:48:18.394Z,3.30
2023-05-18T12:50:52.033Z,3.37
2023-05-18T12:53:21.421Z,3.60
2023-05-18T12:55:58.850Z,3.10
2023-05-18T12:58:29.182Z,3.27
2023-05-18T13:00:57.650Z,3.43
2023-05-18T13:03:27.105Z,3.07
2023-05-18T13:06:04.838Z,3.40
2023-05-18T13:08:34.435Z,2.83
2023-05-18T13:11:12.845Z,3.10
2023-05-18T13:14:03.521Z,3.20
2023-05-18T13:16:33.228Z,2.83
2023-05-18T13:19:03.948Z,3.10
2023-05-18T13:21:32.697Z,3.40
2023-05-18T13:24:01.637Z,3.60
2023-05-18T13:26:30.586Z,3.10
2023-05-18T13:29:00.472Z,2.87
2023-05-18T13:31:30.944Z,3.20
2023-05-18T13:33:59.814Z,2.97
2023-05-18T13:36:30.135Z,3.03
2023-05-18T13:38:59.004Z,3.40
2023-05-18T13:41:28.074Z,3.20
2023-05-18T13:43:56.812Z,3.13
2023-05-18T13:46:25.923Z,3.63
2023-05-18T13:48:55.945Z,3.70
2023-05-18T13:51:24.621Z,2.90
2023-05-18T13:53:53.381Z,2.70
2023-05-18T13:56:22.860Z,3.40
2023-05-18T13:58:51.955Z,2.73
2023-05-18T14:01:22.494Z,3.20
2023-05-18T14:03:53.750Z,3.83
2023-05-18T14:06:24.374Z,2.63
2023-05-18T14:08:53.188Z,3.30
2023-05-18T14:11:21.863Z,2.60
2023-05-18T14:13:50.849Z,3.43
2023-05-18T14:16:19.463Z,3.40
2023-05-18T14:18:48.073Z,3.57
2023-05-18T14:21:16.894Z,3.20
2023-05-18T14:23:48.261Z,3.17
2023-05-18T14:26:16.894Z,2.93
2023-05-18T14:28:45.503Z,2.97
2023-05-18T14:31:14.427Z,2.93
2023-05-18T14:33:43.037Z,2.93
2023-05-18T14:36:11.742Z,3.30
2023-05-18T14:38:40.548Z,2.90
2023-05-18T14:41:10.893Z,3.60
2023-05-18T14:43:39.461Z,3.20
2023-05-18T14:46:09.028Z,3.10
2023-05-18T14:48:37.830Z,2.90
2023-05-18T14:51:06.838Z,3.33
2023-05-18T14:53:35.407Z,2.50
2023-05-18T14:56:06.260Z,3.20
2023-05-18T14:58:37.666Z,3.10
2023-05-18T15:01:06.475Z,3.00
2023-05-18T15:03:35.437Z,3.00
2023-05-18T15:06:04.365Z,2.53
2023-05-18T15:08:33.087Z,3.27
2023-05-18T15:11:02.021Z,3.00
2023-05-18T15:13:30.698Z,2.77
2023-05-18T15:16:00.875Z,2.60
2023-05-18T15:18:29.899Z,2.87
2023-05-18T15:20:58.645Z,2.87
2023-05-18T15:23:27.994Z,3.10
2023-05-18T15:25:56.733Z,3.07
2023-05-18T15:28:25.608Z,2.70
2023-05-18T15:30:54.961Z,2.90
2023-05-18T15:33:24.729Z,2.80
2023-05-18T15:35:53.597Z,3.10
2023-05-18T15:38:22.177Z,2.50
2023-05-18T15:40:51.533Z,2.80
2023-05-18T15:43:20.374Z,2.87
2023-05-18T15:45:49.428Z,3.80
2023-05-18T15:48:18.047Z,2.70
2023-05-18T15:50:48.145Z,2.40
2023-05-18T15:53:17.139Z,2.93
2023-05-18T15:55:45.832Z,2.90
2023-05-18T15:58:15.023Z,2.90
2023-05-18T16:00:43.874Z,2.93
2023-05-18T16:03:12.726Z,2.73
2023-05-18T16:05:41.351Z,2.70
2023-05-18T16:08:11.630Z,2.50
2023-05-18T16:10:40.438Z,2.83
2023-05-18T16:13:09.098Z,2.80
2023-05-18T16:15:38.380Z,2.57
2023-05-18T16:18:07.552Z,2.70
2023-05-18T16:20:36.173Z,2.63
2023-05-18T16:23:05.092Z,2.60
2023-05-18T16:25:35.115Z,2.77
2023-05-18T16:28:03.809Z,2.67
2023-05-18T16:30:33.029Z,3.07
2023-05-18T16:33:02.152Z,2.93
2023-05-18T16:35:31.955Z,3.20
2023-05-18T16:38:01.036Z,2.87
2023-05-18T16:40:30.181Z,3.10
2023-05-18T16:43:01.213Z,3.50
2023-05-18T16:45:29.823Z,3.27
2023-05-18T16:48:01.035Z,3.13
2023-05-18T16:50:30.047Z,2.90
2023-05-18T16:52:58.764Z,2.60
2023-05-18T16:55:27.596Z,2.70
2023-05-18T16:57:56.282Z,2.90
2023-05-18T17:00:26.760Z,3.10
2023-05-18T17:02:55.850Z,2.70
2023-05-18T17:05:24.779Z,2.80
2023-05-18T17:07:54.063Z,2.83
2023-05-18T17:10:23.415Z,3.00
2023-05-18T17:12:52.255Z,2.47
2023-05-18T17:15:21.001Z,2.90
2023-05-18T17:17:51.415Z,2.80
2023-05-18T17:20:20.195Z,2.73
2023-05-18T17:22:48.871Z,3.47
2023-05-18T17:25:17.700Z,2.87
2023-05-18T17:27:46.782Z,2.53
2023-05-18T17:30:15.662Z,2.63
2023-05-18T17:32:45.618Z,2.83
2023-05-18T17:35:15.855Z,3.30
2023-05-18T17:37:44.417Z,3.00
2023-05-18T17:40:14.377Z,3.30
2023-05-18T17:42:43.022Z,3.37
2023-05-18T17:45:12.686Z,3.57
2023-05-18T17:47:41.879Z,3.13
2023-05-18T17:50:11.161Z,3.07
2023-05-18T17:52:41.244Z,3.13
2023-05-18T17:55:11.081Z,2.93
2023-05-18T17:57:46.231Z,2.87
2023-05-18T18:00:16.332Z,2.73
2023-05-18T18:02:44.917Z,2.63
2023-05-18T18:05:13.985Z,2.70
2023-05-18T18:07:43.889Z,2.77
2023-05-18T18:10:13.142Z,2.90
2023-05-18T18:12:41.431Z,2.80
2023-05-18T18:15:11.653Z,3.00
2023-05-18T18:17:40.538Z,3.00
2023-05-18T18:20:10.853Z,2.67
2023-05-18T18:22:40.181Z,2.80
2023-05-18T18:25:10.739Z,2.70
2023-05-18T18:27:39.381Z,3.40
2023-05-18T18:30:09.479Z,3.10
2023-05-18T18:32:37.970Z,2.90
2023-05-18T18:35:07.200Z,3.20
2023-05-18T18:37:36.383Z,2.93
2023-05-18T18:40:07.179Z,3.23
2023-05-18T18:42:37.274Z,3.17
2023-05-18T18:45:06.612Z,3.23
2023-05-18T18:47:35.577Z,3.03
2023-05-18T18:50:05.687Z,2.93
2023-05-18T18:52:34.305Z,3.00
2023-05-18T18:55:02.682Z,3.03
2023-05-18T18:57:31.362Z,3.13
2023-05-18T19:00:02.566Z,3.07
2023-05-18T19:02:31.185Z,3.10
2023-05-18T19:05:00.036Z,3.10
2023-05-18T19:07:28.561Z,2.90
2023-05-18T19:09:57.346Z,2.57
2023-05-18T19:12:26.254Z,2.80
2023-05-18T19:14:55.165Z,2.80
2023-05-18T19:17:26.823Z,2.93
2023-05-18T19:19:55.391Z,2.87
2023-05-18T19:22:24.202Z,3.07
2023-05-18T19:24:53.100Z,3.10
2023-05-18T19:27:21.912Z,3.10
2023-05-18T19:29:50.743Z,2.60
2023-05-18T19:32:19.535Z,3.43
2023-05-18T19:34:50.077Z,3.43
2023-05-18T19:37:18.903Z,2.93
2023-05-18T19:39:47.748Z,3.13
2023-05-18T19:42:16.396Z,3.07
2023-05-18T19:44:44.905Z,3.00
2023-05-18T19:47:13.376Z,2.73
2023-05-18T19:49:42.234Z,2.90
2023-05-18T19:52:12.361Z,2.90
2023-05-18T19:54:41.194Z,3.03
2023-05-18T19:57:09.772Z,3.10
2023-05-18T19:59:38.860Z,2.83
2023-05-18T20:02:07.882Z,2.57
2023-05-18T20:04:36.476Z,2.77
2023-05-18T20:07:05.133Z,2.60
2023-05-18T20:09:35.646Z,3.07
2023-05-18T20:12:06.263Z,3.10
2023-05-18T20:14:37.040Z,3.00
2023-05-18T20:17:06.079Z,3.13
2023-05-18T20:19:37.896Z,2.60
2023-05-18T20:22:09.350Z,2.63
2023-05-18T20:24:43.539Z,3.00
2023-05-18T20:27:12.669Z,2.93
2023-05-18T20:29:41.675Z,2.67
2023-05-18T20:32:10.553Z,2.63
2023-05-18T20:34:40.790Z,2.60
2023-05-18T20:37:11.015Z,3.20
2023-05-18T20:39:43.090Z,2.70
2023-05-18T20:42:12.916Z,3.07
2023-05-18T20:44:42.950Z,2.87
2023-05-18T20:47:11.546Z,2.63
2023-05-18T20:49:40.064Z,2.60
2023-05-18T20:52:08.820Z,2.57
2023-05-18T20:54:37.272Z,2.53
2023-05-18T20:57:07.744Z,2.73
2023-05-18T20:59:36.830Z,3.00
2023-05-18T21:02:06.070Z,2.70
2023-05-18T21:04:34.656Z,3.33
2023-05-18T21:07:05.926Z,3.03
2023-05-18T21:09:34.969Z,3.30
2023-05-18T21:12:04.311Z,3.20
2023-05-18T21:14:34.528Z,3.40
2023-05-18T21:17:03.220Z,3.60
2023-05-18T21:19:31.829Z,3.30
2023-05-18T21:22:00.946Z,3.10
2023-05-18T21:24:29.428Z,3.33
2023-05-18T21:26:58.098Z,3.67
2023-05-18T21:29:26.643Z,3.80
2023-05-18T21:31:56.842Z,3.60
2023-05-18T21:34:25.486Z,3.93
2023-05-18T21:36:54.188Z,4.13
2023-05-18T21:39:22.982Z,4.03
2023-05-18T21:41:51.664Z,4.07
2023-05-18T21:44:20.170Z,3.93
2023-05-18T21:46:49.014Z,3.60
2023-05-18T21:49:19.049Z,3.93
2023-05-18T21:51:48.056Z,3.60
2023-05-18T21:54:16.610Z,4.00
2023-05-18T21:56:45.120Z,4.20
2023-05-18T21:59:13.780Z,4.50
2023-05-18T22:01:42.403Z,4.50
2023-05-18T22:04:11.156Z,4.33
2023-05-18T22:06:41.428Z,4.00
2023-05-18T22:09:10.408Z,4.33
2023-05-18T22:11:39.278Z,4.23
2023-05-18T22:14:08.118Z,4.13
2023-05-18T22:16:36.717Z,3.80
2023-05-18T22:19:05.594Z,3.73
2023-05-18T22:21:34.230Z,4.10
2023-05-18T22:24:04.194Z,4.33
2023-05-18T22:26:33.027Z,4.20
2023-05-18T22:29:01.908Z,4.20
2023-05-18T22:31:30.910Z,3.60
2023-05-18T22:33:59.535Z,3.70
2023-05-18T22:36:29.755Z,4.40
2023-05-18T22:38:58.228Z,3.83
2023-05-18T22:41:28.502Z,3.70
2023-05-18T22:43:57.184Z,4.17
2023-05-18T22:46:26.080Z,3.87
2023-05-18T22:48:54.844Z,4.37
2023-05-18T22:51:26.703Z,4.30
2023-05-18T22:53:56.209Z,4.57
2023-05-18T22:56:24.952Z,4.30
2023-05-18T22:58:55.207Z,4.47
2023-05-18T23:01:23.826Z,4.43
2023-05-18T23:03:52.903Z,4.53
2023-05-18T23:06:26.651Z,4.70
2023-05-18T23:08:55.782Z,4.40
2023-05-18T23:11:25.992Z,4.50
2023-05-18T23:13:56.196Z,4.47
2023-05-18T23:16:26.730Z,4.50
2023-05-18T23:18:58.860Z,4.87
2023-05-18T23:21:27.419Z,4.50
2023-05-18T23:23:56.286Z,4.60
2023-05-18T23:26:25.247Z,4.60
2023-05-18T23:28:56.479Z,4.80
2023-05-18T23:31:25.408Z,4.03
2023-05-18T23:33:54.377Z,4.10
2023-05-18T23:36:27.463Z,4.23
2023-05-18T23:38:59.483Z,4.83
2023-05-18T23:41:29.537Z,4.60
2023-05-18T23:44:00.894Z,4.77
2023-05-18T23:46:31.802Z,4.50
2023-05-18T23:49:01.248Z,4.43
2023-05-18T23:51:35.927Z,4.37
2023-05-18T23:54:07.423Z,5.00
2023-05-18T23:56:36.845Z,4.53
2023-05-18T23:59:07.611Z,4.37
